sensor_id;sensor_type;location;lat;lon;timestamp;temperature;humidity
67163;DHT22;54092;53.088;8.850;2024-03-23T00:55:54;7.40;99.90
67163;DHT22;54092;53.088;8.850;2024-03-23T00:58:20;7.30;99.90
67163;DHT22;54092;53.088;8.850;2024-03-23T01:00:45;7.30;99.90
67163;DHT22;54092;53.088;8.850;2024-03-23T01:03:11;7.30;99.90
67163;DHT22;54092;53.088;8.850;2024-03-23T01:05:36;7.30;99.90
67163;DHT22;54092;53.088;8.850;2024-03-23T01:08:02;7.20;99.90
67163;DHT22;54092;53.088;8.850;2024-03-23T01:10:27;7.20;99.90
67163;DHT22;54092;53.088;8.850;2024-03-23T01:12:53;7.20;99.90
67163;DHT22;54092;53.088;8.850;2024-03-23T01:15:18;7.20;99.90
67163;DHT22;54092;53.088;8.850;2024-03-23T01:17:44;7.20;99.90
67163;DHT22;54092;53.088;8.850;2024-03-23T01:20:09;7.20;99.90
67163;DHT22;54092;53.088;8.850;2024-03-23T01:22:35;7.20;99.90
67163;DHT22;54092;53.088;8.850;2024-03-23T01:25:01;7.20;99.90
67163;DHT22;54092;53.088;8.850;2024-03-23T01:27:26;7.20;99.90
67163;DHT22;54092;53.088;8.850;2024-03-23T01:29:52;7.20;99.90
67163;DHT22;54092;53.088;8.850;2024-03-23T01:32:20;7.20;99.90
67163;DHT22;54092;53.088;8.850;2024-03-23T01:34:46;7.20;99.90
67163;DHT22;54092;53.088;8.850;2024-03-23T01:37:11;7.10;99.90
67163;DHT22;54092;53.088;8.850;2024-03-23T01:39:37;7.10;99.90
67163;DHT22;54092;53.088;8.850;2024-03-23T01:42:03;7.10;99.90
67163;DHT22;54092;53.088;8.850;2024-03-23T01:44:28;7.10;99.90
67163;DHT22;54092;53.088;8.850;2024-03-23T01:46:54;7.10;99.90
67163;DHT22;54092;53.088;8.850;2024-03-23T01:49:20;7.10;99.90
67163;DHT22;54092;53.088;8.850;2024-03-23T01:51:46;7.10;99.90
67163;DHT22;54092;53.088;8.850;2024-03-23T01:54:12;7.10;99.90
67163;DHT22;54092;53.088;8.850;2024-03-23T01:56:37;7.10;99.90
67163;DHT22;54092;53.088;8.850;2024-03-23T01:59:04;7.10;99.90
67163;DHT22;54092;53.088;8.850;2024-03-23T02:01:30;7.10;99.90
67163;DHT22;54092;53.088;8.850;2024-03-23T02:03:57;7.10;99.90
67163;DHT22;54092;53.088;8.850;2024-03-23T02:06:24;7.10;99.90
67163;DHT22;54092;53.088;8.850;2024-03-23T02:08:50;7.00;99.90
67163;DHT22;54092;53.088;8.850;2024-03-23T02:11:15;7.00;99.90
67163;DHT22;54092;53.088;8.850;2024-03-23T02:13:41;7.00;99.90
67163;DHT22;54092;53.088;8.850;2024-03-23T02:16:06;7.00;99.90
67163;DHT22;54092;53.088;8.850;2024-03-23T02:18:35;7.00;99.90
67163;DHT22;54092;53.088;8.850;2024-03-23T02:21:00;7.00;99.90
67163;DHT22;54092;53.088;8.850;2024-03-23T02:23:26;7.00;99.90
67163;DHT22;54092;53.088;8.850;2024-03-23T02:25:51;7.00;99.90
67163;DHT22;54092;53.088;8.850;2024-03-23T02:28:19;7.00;99.90
67163;DHT22;54092;53.088;8.850;2024-03-23T02:30:44;7.00;99.90
67163;DHT22;54092;53.088;8.850;2024-03-23T02:33:10;6.90;99.90
67163;DHT22;54092;53.088;8.850;2024-03-23T02:35:35;6.90;99.90
67163;DHT22;54092;53.088;8.850;2024-03-23T02:38:01;6.90;99.90
67163;DHT22;54092;53.088;8.850;2024-03-23T02:40:27;6.90;99.90
67163;DHT22;54092;53.088;8.850;2024-03-23T02:42:53;6.90;99.90
67163;DHT22;54092;53.088;8.850;2024-03-23T02:45:18;6.90;99.90
67163;DHT22;54092;53.088;8.850;2024-03-23T02:47:44;6.90;99.90
67163;DHT22;54092;53.088;8.850;2024-03-23T02:50:09;6.90;99.90
67163;DHT22;54092;53.088;8.850;2024-03-23T02:52:36;6.90;99.90
67163;DHT22;54092;53.088;8.850;2024-03-23T02:55:02;6.90;99.90
67163;DHT22;54092;53.088;8.850;2024-03-23T02:57:28;6.90;99.90
67163;DHT22;54092;53.088;8.850;2024-03-23T02:59:54;6.90;99.90
67163;DHT22;54092;53.088;8.850;2024-03-23T03:02:20;6.90;99.90
67163;DHT22;54092;53.088;8.850;2024-03-23T03:04:46;6.90;99.90
67163;DHT22;54092;53.088;8.850;2024-03-23T03:07:11;6.90;99.90
67163;DHT22;54092;53.088;8.850;2024-03-23T03:09:37;6.90;99.90
67163;DHT22;54092;53.088;8.850;2024-03-23T03:12:05;6.90;99.90
67163;DHT22;54092;53.088;8.850;2024-03-23T03:14:30;6.90;99.90
67163;DHT22;54092;53.088;8.850;2024-03-23T03:16:56;6.90;99.90
67163;DHT22;54092;53.088;8.850;2024-03-23T03:19:21;6.90;99.90
67163;DHT22;54092;53.088;8.850;2024-03-23T03:21:47;6.90;99.90
67163;DHT22;54092;53.088;8.850;2024-03-23T03:24:13;6.90;99.90
67163;DHT22;54092;53.088;8.850;2024-03-23T03:26:39;6.90;99.90
67163;DHT22;54092;53.088;8.850;2024-03-23T03:29:04;6.90;99.90
67163;DHT22;54092;53.088;8.850;2024-03-23T03:31:30;6.90;99.90
67163;DHT22;54092;53.088;8.850;2024-03-23T03:33:55;6.90;99.90
67163;DHT22;54092;53.088;8.850;2024-03-23T03:36:21;6.90;99.90
67163;DHT22;54092;53.088;8.850;2024-03-23T03:38:46;6.90;99.90
67163;DHT22;54092;53.088;8.850;2024-03-23T03:41:12;6.90;99.90
67163;DHT22;54092;53.088;8.850;2024-03-23T03:43:37;6.90;99.90
67163;DHT22;54092;53.088;8.850;2024-03-23T03:46:03;6.90;99.90
67163;DHT22;54092;53.088;8.850;2024-03-23T03:48:29;6.90;99.90
67163;DHT22;54092;53.088;8.850;2024-03-23T03:50:55;6.90;99.90
67163;DHT22;54092;53.088;8.850;2024-03-23T03:53:20;6.80;99.90
67163;DHT22;54092;53.088;8.850;2024-03-23T03:55:46;6.80;99.90
67163;DHT22;54092;53.088;8.850;2024-03-23T03:58:12;6.70;99.90
67163;DHT22;54092;53.088;8.850;2024-03-23T04:00:37;6.70;99.90
67163;DHT22;54092;53.088;8.850;2024-03-23T04:03:03;6.70;99.90
67163;DHT22;54092;53.088;8.850;2024-03-23T04:05:28;6.80;99.90
67163;DHT22;54092;53.088;8.850;2024-03-23T04:07:54;6.80;99.90
67163;DHT22;54092;53.088;8.850;2024-03-23T04:10:20;6.70;99.90
67163;DHT22;54092;53.088;8.850;2024-03-23T04:12:46;6.70;99.90
67163;DHT22;54092;53.088;8.850;2024-03-23T04:15:12;6.70;99.90
67163;DHT22;54092;53.088;8.850;2024-03-23T04:17:38;6.70;99.90
67163;DHT22;54092;53.088;8.850;2024-03-23T04:20:03;6.70;99.90
67163;DHT22;54092;53.088;8.850;2024-03-23T04:22:34;6.70;99.90
67163;DHT22;54092;53.088;8.850;2024-03-23T04:25:00;6.70;99.90
67163;DHT22;54092;53.088;8.850;2024-03-23T04:27:34;6.70;99.90
67163;DHT22;54092;53.088;8.850;2024-03-23T04:30:00;6.70;99.90
67163;DHT22;54092;53.088;8.850;2024-03-23T04:32:26;6.70;99.90
67163;DHT22;54092;53.088;8.850;2024-03-23T04:34:53;6.70;99.90
67163;DHT22;54092;53.088;8.850;2024-03-23T04:37:18;6.70;99.90
67163;DHT22;54092;53.088;8.850;2024-03-23T04:39:44;6.70;99.90
67163;DHT22;54092;53.088;8.850;2024-03-23T04:42:10;6.70;99.90
67163;DHT22;54092;53.088;8.850;2024-03-23T04:44:35;6.70;99.90
67163;DHT22;54092;53.088;8.850;2024-03-23T04:47:01;6.70;99.90
67163;DHT22;54092;53.088;8.850;2024-03-23T04:49:27;6.60;99.90
67163;DHT22;54092;53.088;8.850;2024-03-23T04:51:52;6.60;99.90
67163;DHT22;54092;53.088;8.850;2024-03-23T04:54:18;6.60;99.90
67163;DHT22;54092;53.088;8.850;2024-03-23T04:56:43;6.60;99.90
67163;DHT22;54092;53.088;8.850;2024-03-23T04:59:09;6.60;99.90
67163;DHT22;54092;53.088;8.850;2024-03-23T05:01:34;6.60;99.90
67163;DHT22;54092;53.088;8.850;2024-03-23T05:04:00;6.60;99.90
67163;DHT22;54092;53.088;8.850;2024-03-23T05:06:26;6.60;99.90
67163;DHT22;54092;53.088;8.850;2024-03-23T05:08:52;6.50;99.90
67163;DHT22;54092;53.088;8.850;2024-03-23T05:11:17;6.60;99.90
67163;DHT22;54092;53.088;8.850;2024-03-23T05:13:43;6.60;99.90
67163;DHT22;54092;53.088;8.850;2024-03-23T05:16:09;6.50;99.90
67163;DHT22;54092;53.088;8.850;2024-03-23T05:18:35;6.50;99.90
67163;DHT22;54092;53.088;8.850;2024-03-23T05:21:01;6.50;99.90
67163;DHT22;54092;53.088;8.850;2024-03-23T05:23:28;6.50;99.90
67163;DHT22;54092;53.088;8.850;2024-03-23T05:25:55;6.50;99.90
67163;DHT22;54092;53.088;8.850;2024-03-23T05:28:21;6.40;99.90
67163;DHT22;54092;53.088;8.850;2024-03-23T05:30:51;6.50;99.90
67163;DHT22;54092;53.088;8.850;2024-03-23T05:33:17;6.40;99.90
67163;DHT22;54092;53.088;8.850;2024-03-23T05:35:43;6.40;99.90
67163;DHT22;54092;53.088;8.850;2024-03-23T05:38:08;6.40;99.90
67163;DHT22;54092;53.088;8.850;2024-03-23T05:40:34;6.40;99.90
67163;DHT22;54092;53.088;8.850;2024-03-23T05:43:03;6.30;99.90
67163;DHT22;54092;53.088;8.850;2024-03-23T05:45:29;6.30;99.90
67163;DHT22;54092;53.088;8.850;2024-03-23T05:47:54;6.30;99.90
67163;DHT22;54092;53.088;8.850;2024-03-23T05:50:22;6.20;99.90
67163;DHT22;54092;53.088;8.850;2024-03-23T05:52:48;6.10;99.90
67163;DHT22;54092;53.088;8.850;2024-03-23T05:55:14;6.20;99.90
67163;DHT22;54092;53.088;8.850;2024-03-23T05:57:39;6.20;99.90
67163;DHT22;54092;53.088;8.850;2024-03-23T06:00:06;6.10;99.90
67163;DHT22;54092;53.088;8.850;2024-03-23T06:02:43;6.20;99.90
67163;DHT22;54092;53.088;8.850;2024-03-23T06:05:12;6.10;99.90
67163;DHT22;54092;53.088;8.850;2024-03-23T06:07:38;6.10;99.90
67163;DHT22;54092;53.088;8.850;2024-03-23T06:10:04;6.10;99.90
67163;DHT22;54092;53.088;8.850;2024-03-23T06:12:30;6.10;99.90
67163;DHT22;54092;53.088;8.850;2024-03-23T06:14:56;6.10;99.90
67163;DHT22;54092;53.088;8.850;2024-03-23T06:17:21;6.10;99.90
67163;DHT22;54092;53.088;8.850;2024-03-23T06:19:47;6.10;99.90
67163;DHT22;54092;53.088;8.850;2024-03-23T06:22:13;6.10;99.90
67163;DHT22;54092;53.088;8.850;2024-03-23T06:24:38;6.20;99.90
67163;DHT22;54092;53.088;8.850;2024-03-23T06:27:04;6.20;99.90
67163;DHT22;54092;53.088;8.850;2024-03-23T06:29:29;6.30;99.90
67163;DHT22;54092;53.088;8.850;2024-03-23T06:31:55;6.30;99.90
67163;DHT22;54092;53.088;8.850;2024-03-23T06:34:21;6.40;99.90
67163;DHT22;54092;53.088;8.850;2024-03-23T06:36:48;6.40;99.90
67163;DHT22;54092;53.088;8.850;2024-03-23T06:39:15;6.40;99.90
67163;DHT22;54092;53.088;8.850;2024-03-23T06:41:51;6.50;99.90
67163;DHT22;54092;53.088;8.850;2024-03-23T06:44:17;6.50;99.90
67163;DHT22;54092;53.088;8.850;2024-03-23T06:46:43;6.60;99.90
67163;DHT22;54092;53.088;8.850;2024-03-23T06:49:08;6.70;99.90
67163;DHT22;54092;53.088;8.850;2024-03-23T06:51:34;6.70;99.90
67163;DHT22;54092;53.088;8.850;2024-03-23T06:53:59;6.70;99.90
67163;DHT22;54092;53.088;8.850;2024-03-23T06:56:25;6.80;99.90
67163;DHT22;54092;53.088;8.850;2024-03-23T06:58:50;6.80;99.90
67163;DHT22;54092;53.088;8.850;2024-03-23T07:01:16;6.90;99.90
67163;DHT22;54092;53.088;8.850;2024-03-23T07:03:42;6.90;99.90
67163;DHT22;54092;53.088;8.850;2024-03-23T07:06:09;7.00;99.90
67163;DHT22;54092;53.088;8.850;2024-03-23T07:08:35;7.10;99.90
67163;DHT22;54092;53.088;8.850;2024-03-23T07:11:01;7.20;99.90
67163;DHT22;54092;53.088;8.850;2024-03-23T07:13:28;7.20;99.90
67163;DHT22;54092;53.088;8.850;2024-03-23T07:15:54;7.40;99.90
67163;DHT22;54092;53.088;8.850;2024-03-23T07:18:21;7.40;99.90
67163;DHT22;54092;53.088;8.850;2024-03-23T07:20:56;7.40;99.90
67163;DHT22;54092;53.088;8.850;2024-03-23T07:23:23;7.50;99.90
67163;DHT22;54092;53.088;8.850;2024-03-23T07:26:03;7.50;99.90
67163;DHT22;54092;53.088;8.850;2024-03-23T07:28:30;7.60;99.90
67163;DHT22;54092;53.088;8.850;2024-03-23T07:31:05;7.60;99.90
67163;DHT22;54092;53.088;8.850;2024-03-23T07:33:32;7.70;99.90
67163;DHT22;54092;53.088;8.850;2024-03-23T07:35:58;7.70;99.90
67163;DHT22;54092;53.088;8.850;2024-03-23T07:38:26;7.80;99.90
67163;DHT22;54092;53.088;8.850;2024-03-23T07:41:01;7.80;99.90
67163;DHT22;54092;53.088;8.850;2024-03-23T07:43:28;7.90;99.90
67163;DHT22;54092;53.088;8.850;2024-03-23T07:45:53;7.90;99.90
67163;DHT22;54092;53.088;8.850;2024-03-23T07:48:21;8.00;99.90
67163;DHT22;54092;53.088;8.850;2024-03-23T07:51:01;8.10;99.90
67163;DHT22;54092;53.088;8.850;2024-03-23T07:53:28;8.20;99.90
67163;DHT22;54092;53.088;8.850;2024-03-23T07:56:02;8.30;99.90
67163;DHT22;54092;53.088;8.850;2024-03-23T07:58:28;8.40;99.90
67163;DHT22;54092;53.088;8.850;2024-03-23T08:00:54;8.50;99.90
67163;DHT22;54092;53.088;8.850;2024-03-23T08:03:20;8.50;99.90
67163;DHT22;54092;53.088;8.850;2024-03-23T08:05:46;8.60;99.90
67163;DHT22;54092;53.088;8.850;2024-03-23T08:08:12;8.60;99.90
67163;DHT22;54092;53.088;8.850;2024-03-23T08:10:47;8.60;99.90
67163;DHT22;54092;53.088;8.850;2024-03-23T08:13:13;8.60;99.90
67163;DHT22;54092;53.088;8.850;2024-03-23T08:15:38;8.70;99.90
67163;DHT22;54092;53.088;8.850;2024-03-23T08:18:04;8.70;99.90
67163;DHT22;54092;53.088;8.850;2024-03-23T08:20:30;8.70;99.90
67163;DHT22;54092;53.088;8.850;2024-03-23T08:22:55;8.80;99.90
67163;DHT22;54092;53.088;8.850;2024-03-23T08:25:21;8.90;99.90
67163;DHT22;54092;53.088;8.850;2024-03-23T08:27:46;8.90;99.90
67163;DHT22;54092;53.088;8.850;2024-03-23T08:30:12;9.00;99.90
67163;DHT22;54092;53.088;8.850;2024-03-23T08:32:37;9.20;99.90
67163;DHT22;54092;53.088;8.850;2024-03-23T08:35:04;9.20;99.90
67163;DHT22;54092;53.088;8.850;2024-03-23T08:37:29;9.30;99.90
67163;DHT22;54092;53.088;8.850;2024-03-23T08:39:55;9.50;99.90
67163;DHT22;54092;53.088;8.850;2024-03-23T08:42:20;9.70;99.90
67163;DHT22;54092;53.088;8.850;2024-03-23T08:44:47;9.80;99.90
67163;DHT22;54092;53.088;8.850;2024-03-23T08:47:15;9.50;99.90
67163;DHT22;54092;53.088;8.850;2024-03-23T08:49:41;9.50;99.90
67163;DHT22;54092;53.088;8.850;2024-03-23T08:52:07;10.10;99.90
67163;DHT22;54092;53.088;8.850;2024-03-23T08:54:32;10.50;99.90
67163;DHT22;54092;53.088;8.850;2024-03-23T08:56:58;11.20;98.50
67163;DHT22;54092;53.088;8.850;2024-03-23T08:59:23;11.30;94.90
67163;DHT22;54092;53.088;8.850;2024-03-23T09:01:49;11.10;95.40
67163;DHT22;54092;53.088;8.850;2024-03-23T09:04:14;11.10;94.80
67163;DHT22;54092;53.088;8.850;2024-03-23T09:06:42;10.90;95.00
67163;DHT22;54092;53.088;8.850;2024-03-23T09:09:08;11.00;94.50
67163;DHT22;54092;53.088;8.850;2024-03-23T09:11:34;10.50;95.10
67163;DHT22;54092;53.088;8.850;2024-03-23T09:13:59;10.00;96.80
67163;DHT22;54092;53.088;8.850;2024-03-23T09:16:24;10.00;98.10
67163;DHT22;54092;53.088;8.850;2024-03-23T09:18:52;9.90;97.40
67163;DHT22;54092;53.088;8.850;2024-03-23T09:21:17;10.30;96.80
67163;DHT22;54092;53.088;8.850;2024-03-23T09:23:44;11.10;93.20
67163;DHT22;54092;53.088;8.850;2024-03-23T09:26:10;11.70;92.20
67163;DHT22;54092;53.088;8.850;2024-03-23T09:28:36;12.80;86.80
67163;DHT22;54092;53.088;8.850;2024-03-23T09:31:06;13.20;81.10
67163;DHT22;54092;53.088;8.850;2024-03-23T09:33:33;12.40;80.60
67163;DHT22;54092;53.088;8.850;2024-03-23T09:36:03;11.40;83.70
67163;DHT22;54092;53.088;8.850;2024-03-23T09:38:29;10.80;88.80
67163;DHT22;54092;53.088;8.850;2024-03-23T09:40:54;10.50;91.00
67163;DHT22;54092;53.088;8.850;2024-03-23T09:43:20;10.20;92.60
67163;DHT22;54092;53.088;8.850;2024-03-23T09:45:46;10.00;93.70
67163;DHT22;54092;53.088;8.850;2024-03-23T09:48:12;9.90;94.10
67163;DHT22;54092;53.088;8.850;2024-03-23T09:50:42;10.40;93.60
67163;DHT22;54092;53.088;8.850;2024-03-23T09:53:12;11.30;91.10
67163;DHT22;54092;53.088;8.850;2024-03-23T09:55:39;11.50;90.20
67163;DHT22;54092;53.088;8.850;2024-03-23T09:58:05;11.40;90.50
67163;DHT22;54092;53.088;8.850;2024-03-23T10:00:35;11.20;89.90
67163;DHT22;54092;53.088;8.850;2024-03-23T10:03:01;10.90;90.60
67163;DHT22;54092;53.088;8.850;2024-03-23T10:05:30;10.70;92.40
67163;DHT22;54092;53.088;8.850;2024-03-23T10:10:43;11.00;92.10
67163;DHT22;54092;53.088;8.850;2024-03-23T10:13:09;10.90;91.20
67163;DHT22;54092;53.088;8.850;2024-03-23T10:15:35;10.80;91.00
67163;DHT22;54092;53.088;8.850;2024-03-23T10:18:20;11.00;91.00
67163;DHT22;54092;53.088;8.850;2024-03-23T10:23:31;11.50;87.70
67163;DHT22;54092;53.088;8.850;2024-03-23T10:26:20;11.80;89.80
67163;DHT22;54092;53.088;8.850;2024-03-23T10:28:58;12.00;83.10
67163;DHT22;54092;53.088;8.850;2024-03-23T10:31:26;11.30;86.50
67163;DHT22;54092;53.088;8.850;2024-03-23T10:33:52;10.70;91.30
67163;DHT22;54092;53.088;8.850;2024-03-23T10:36:21;10.80;90.20
67163;DHT22;54092;53.088;8.850;2024-03-23T10:38:47;11.10;90.00
67163;DHT22;54092;53.088;8.850;2024-03-23T10:41:15;11.40;88.60
67163;DHT22;54092;53.088;8.850;2024-03-23T10:43:40;11.00;89.40
67163;DHT22;54092;53.088;8.850;2024-03-23T10:46:06;11.40;89.60
67163;DHT22;54092;53.088;8.850;2024-03-23T10:48:33;12.40;85.50
67163;DHT22;54092;53.088;8.850;2024-03-23T10:50:58;13.10;83.30
67163;DHT22;54092;53.088;8.850;2024-03-23T10:53:28;13.50;79.50
67163;DHT22;54092;53.088;8.850;2024-03-23T10:55:55;13.20;80.10
67163;DHT22;54092;53.088;8.850;2024-03-23T10:58:43;12.90;80.10
67163;DHT22;54092;53.088;8.850;2024-03-23T11:01:12;12.10;82.00
67163;DHT22;54092;53.088;8.850;2024-03-23T11:03:39;11.70;84.20
67163;DHT22;54092;53.088;8.850;2024-03-23T11:06:09;11.40;83.70
67163;DHT22;54092;53.088;8.850;2024-03-23T11:08:39;10.80;86.40
67163;DHT22;54092;53.088;8.850;2024-03-23T11:13:39;11.40;84.10
67163;DHT22;54092;53.088;8.850;2024-03-23T11:16:21;11.80;83.70
67163;DHT22;54092;53.088;8.850;2024-03-23T11:18:47;12.00;81.00
67163;DHT22;54092;53.088;8.850;2024-03-23T11:21:54;11.90;80.60
67163;DHT22;54092;53.088;8.850;2024-03-23T11:24:21;12.20;79.40
67163;DHT22;54092;53.088;8.850;2024-03-23T11:26:47;11.90;77.80
67163;DHT22;54092;53.088;8.850;2024-03-23T11:29:14;11.80;78.40
67163;DHT22;54092;53.088;8.850;2024-03-23T11:31:53;11.60;80.60
67163;DHT22;54092;53.088;8.850;2024-03-23T11:34:19;11.30;81.90
67163;DHT22;54092;53.088;8.850;2024-03-23T11:36:46;11.30;81.20
67163;DHT22;54092;53.088;8.850;2024-03-23T11:39:16;11.40;80.20
67163;DHT22;54092;53.088;8.850;2024-03-23T11:41:49;11.20;82.10
67163;DHT22;54092;53.088;8.850;2024-03-23T11:44:19;11.20;82.40
67163;DHT22;54092;53.088;8.850;2024-03-23T11:46:46;11.30;82.50
67163;DHT22;54092;53.088;8.850;2024-03-23T11:49:24;11.10;82.20
67163;DHT22;54092;53.088;8.850;2024-03-23T11:51:52;10.90;84.10
67163;DHT22;54092;53.088;8.850;2024-03-23T11:54:26;11.60;80.90
67163;DHT22;54092;53.088;8.850;2024-03-23T11:57:02;11.90;78.90
67163;DHT22;54092;53.088;8.850;2024-03-23T11:59:37;12.50;77.80
67163;DHT22;54092;53.088;8.850;2024-03-23T12:02:13;13.00;73.40
67163;DHT22;54092;53.088;8.850;2024-03-23T12:04:42;12.50;72.80
67163;DHT22;54092;53.088;8.850;2024-03-23T12:07:12;12.20;73.20
67163;DHT22;54092;53.088;8.850;2024-03-23T12:09:38;12.40;73.30
67163;DHT22;54092;53.088;8.850;2024-03-23T12:12:22;12.60;73.10
67163;DHT22;54092;53.088;8.850;2024-03-23T12:15:07;12.20;74.50
67163;DHT22;54092;53.088;8.850;2024-03-23T12:17:33;11.20;78.00
67163;DHT22;54092;53.088;8.850;2024-03-23T12:20:00;10.30;85.50
67163;DHT22;54092;53.088;8.850;2024-03-23T12:22:26;9.60;94.20
67163;DHT22;54092;53.088;8.850;2024-03-23T12:24:52;9.10;96.00
67163;DHT22;54092;53.088;8.850;2024-03-23T12:27:18;8.90;97.90
67163;DHT22;54092;53.088;8.850;2024-03-23T12:29:44;8.80;99.10
67163;DHT22;54092;53.088;8.850;2024-03-23T12:32:11;8.50;98.10
67163;DHT22;54092;53.088;8.850;2024-03-23T12:34:37;8.10;98.60
67163;DHT22;54092;53.088;8.850;2024-03-23T12:37:03;7.70;99.90
67163;DHT22;54092;53.088;8.850;2024-03-23T12:39:28;7.20;99.90
67163;DHT22;54092;53.088;8.850;2024-03-23T12:41:54;7.00;99.90
67163;DHT22;54092;53.088;8.850;2024-03-23T12:44:19;6.90;99.90
67163;DHT22;54092;53.088;8.850;2024-03-23T12:46:45;6.90;99.90
67163;DHT22;54092;53.088;8.850;2024-03-23T12:49:11;6.90;99.90
67163;DHT22;54092;53.088;8.850;2024-03-23T12:51:37;7.00;99.90
67163;DHT22;54092;53.088;8.850;2024-03-23T12:54:03;7.30;99.90
67163;DHT22;54092;53.088;8.850;2024-03-23T12:56:28;8.10;99.90
67163;DHT22;54092;53.088;8.850;2024-03-23T12:58:55;8.90;99.90
67163;DHT22;54092;53.088;8.850;2024-03-23T13:01:23;9.50;97.50
67163;DHT22;54092;53.088;8.850;2024-03-23T13:03:49;9.70;96.00
67163;DHT22;54092;53.088;8.850;2024-03-23T13:06:16;9.70;95.60
67163;DHT22;54092;53.088;8.850;2024-03-23T13:08:43;10.00;93.70
67163;DHT22;54092;53.088;8.850;2024-03-23T13:11:10;10.30;92.60
67163;DHT22;54092;53.088;8.850;2024-03-23T13:13:36;10.90;91.30
67163;DHT22;54092;53.088;8.850;2024-03-23T13:16:01;12.20;81.90
67163;DHT22;54092;53.088;8.850;2024-03-23T13:18:31;12.50;82.20
67163;DHT22;54092;53.088;8.850;2024-03-23T13:20:57;13.30;76.80
67163;DHT22;54092;53.088;8.850;2024-03-23T13:23:22;13.50;73.70
67163;DHT22;54092;53.088;8.850;2024-03-23T13:25:52;13.30;73.60
67163;DHT22;54092;53.088;8.850;2024-03-23T13:28:21;13.30;72.20
67163;DHT22;54092;53.088;8.850;2024-03-23T13:30:54;12.50;73.80
67163;DHT22;54092;53.088;8.850;2024-03-23T13:33:20;12.20;75.90
67163;DHT22;54092;53.088;8.850;2024-03-23T13:35:52;11.60;79.20
67163;DHT22;54092;53.088;8.850;2024-03-23T13:38:18;11.00;81.10
67163;DHT22;54092;53.088;8.850;2024-03-23T13:40:57;10.30;84.50
67163;DHT22;54092;53.088;8.850;2024-03-23T13:43:24;9.80;91.10
67163;DHT22;54092;53.088;8.850;2024-03-23T13:45:54;8.80;99.10
67163;DHT22;54092;53.088;8.850;2024-03-23T13:48:20;7.40;99.90
67163;DHT22;54092;53.088;8.850;2024-03-23T13:50:47;6.50;99.90
67163;DHT22;54092;53.088;8.850;2024-03-23T13:53:15;6.00;99.90
67163;DHT22;54092;53.088;8.850;2024-03-23T13:55:47;5.70;99.90
67163;DHT22;54092;53.088;8.850;2024-03-23T13:58:16;5.60;99.90
67163;DHT22;54092;53.088;8.850;2024-03-23T14:00:41;5.50;99.90
67163;DHT22;54092;53.088;8.850;2024-03-23T14:03:10;5.50;99.90
67163;DHT22;54092;53.088;8.850;2024-03-23T14:05:40;5.70;99.90
67163;DHT22;54092;53.088;8.850;2024-03-23T14:08:06;6.00;99.90
67163;DHT22;54092;53.088;8.850;2024-03-23T14:10:32;6.20;99.90
67163;DHT22;54092;53.088;8.850;2024-03-23T14:12:58;6.40;99.90
67163;DHT22;54092;53.088;8.850;2024-03-23T14:15:25;6.60;99.90
67163;DHT22;54092;53.088;8.850;2024-03-23T14:17:51;6.70;99.90
67163;DHT22;54092;53.088;8.850;2024-03-23T14:20:17;6.80;99.90
67163;DHT22;54092;53.088;8.850;2024-03-23T14:22:42;7.00;99.90
67163;DHT22;54092;53.088;8.850;2024-03-23T14:25:09;7.20;99.90
67163;DHT22;54092;53.088;8.850;2024-03-23T14:27:34;7.70;99.90
67163;DHT22;54092;53.088;8.850;2024-03-23T14:30:06;8.20;99.90
67163;DHT22;54092;53.088;8.850;2024-03-23T14:32:31;8.70;99.90
67163;DHT22;54092;53.088;8.850;2024-03-23T14:35:05;8.90;99.90
67163;DHT22;54092;53.088;8.850;2024-03-23T14:37:36;8.90;99.90
67163;DHT22;54092;53.088;8.850;2024-03-23T14:40:04;8.90;99.90
67163;DHT22;54092;53.088;8.850;2024-03-23T14:42:29;8.60;99.90
67163;DHT22;54092;53.088;8.850;2024-03-23T14:44:56;8.40;99.90
67163;DHT22;54092;53.088;8.850;2024-03-23T14:47:22;8.30;99.90
67163;DHT22;54092;53.088;8.850;2024-03-23T14:49:47;8.30;99.90
67163;DHT22;54092;53.088;8.850;2024-03-23T14:52:16;8.10;99.90
67163;DHT22;54092;53.088;8.850;2024-03-23T14:54:42;8.20;99.90
67163;DHT22;54092;53.088;8.850;2024-03-23T14:57:07;8.40;99.90
67163;DHT22;54092;53.088;8.850;2024-03-23T14:59:35;8.50;99.90
67163;DHT22;54092;53.088;8.850;2024-03-23T15:02:00;8.80;99.90
67163;DHT22;54092;53.088;8.850;2024-03-23T15:04:26;8.90;99.90
67163;DHT22;54092;53.088;8.850;2024-03-23T15:06:52;8.80;99.90
67163;DHT22;54092;53.088;8.850;2024-03-23T15:09:17;8.80;99.90
67163;DHT22;54092;53.088;8.850;2024-03-23T15:11:43;8.90;99.90
67163;DHT22;54092;53.088;8.850;2024-03-23T15:14:09;9.00;99.90
67163;DHT22;54092;53.088;8.850;2024-03-23T15:16:36;10.30;99.90
67163;DHT22;54092;53.088;8.850;2024-03-23T15:19:01;9.30;99.30
67163;DHT22;54092;53.088;8.850;2024-03-23T15:21:27;10.50;99.90
67163;DHT22;54092;53.088;8.850;2024-03-23T15:23:52;9.30;95.90
67163;DHT22;54092;53.088;8.850;2024-03-23T15:26:18;7.90;99.90
67163;DHT22;54092;53.088;8.850;2024-03-23T15:28:47;9.10;97.40
67163;DHT22;54092;53.088;8.850;2024-03-23T15:31:22;11.10;99.90
67163;DHT22;54092;53.088;8.850;2024-03-23T15:33:47;8.90;95.90
67163;DHT22;54092;53.088;8.850;2024-03-23T15:36:13;8.40;96.60
67163;DHT22;54092;53.088;8.850;2024-03-23T15:38:39;8.80;97.10
67163;DHT22;54092;53.088;8.850;2024-03-23T15:41:04;9.30;95.60
67163;DHT22;54092;53.088;8.850;2024-03-23T15:43:30;8.90;96.70
67163;DHT22;54092;53.088;8.850;2024-03-23T15:46:01;8.50;99.90
67163;DHT22;54092;53.088;8.850;2024-03-23T15:48:27;8.30;99.90
67163;DHT22;54092;53.088;8.850;2024-03-23T15:50:57;8.50;99.90
67163;DHT22;54092;53.088;8.850;2024-03-23T15:53:23;8.20;99.90
67163;DHT22;54092;53.088;8.850;2024-03-23T15:56:02;8.00;99.90
67163;DHT22;54092;53.088;8.850;2024-03-23T15:58:29;8.00;99.90
67163;DHT22;54092;53.088;8.850;2024-03-23T16:03:24;8.40;99.90
67163;DHT22;54092;53.088;8.850;2024-03-23T16:05:53;8.10;99.90
67163;DHT22;54092;53.088;8.850;2024-03-23T16:08:19;9.10;99.00
67163;DHT22;54092;53.088;8.850;2024-03-23T16:10:44;9.30;98.30
67163;DHT22;54092;53.088;8.850;2024-03-23T16:13:10;8.50;98.50
67163;DHT22;54092;53.088;8.850;2024-03-23T16:15:36;8.50;98.50
67163;DHT22;54092;53.088;8.850;2024-03-23T16:18:01;9.00;97.60
67163;DHT22;54092;53.088;8.850;2024-03-23T16:20:26;10.70;98.50
67163;DHT22;54092;53.088;8.850;2024-03-23T16:22:52;10.70;99.90
67163;DHT22;54092;53.088;8.850;2024-03-23T16:25:18;6.90;99.90
67163;DHT22;54092;53.088;8.850;2024-03-23T16:27:44;9.10;99.90
67163;DHT22;54092;53.088;8.850;2024-03-23T16:30:10;8.20;99.90
67163;DHT22;54092;53.088;8.850;2024-03-23T16:32:36;7.80;99.90
67163;DHT22;54092;53.088;8.850;2024-03-23T16:35:03;8.10;99.90
67163;DHT22;54092;53.088;8.850;2024-03-23T16:37:29;8.10;99.90
67163;DHT22;54092;53.088;8.850;2024-03-23T16:39:54;8.70;99.90
67163;DHT22;54092;53.088;8.850;2024-03-23T16:42:19;6.30;99.90
67163;DHT22;54092;53.088;8.850;2024-03-23T16:44:46;8.30;99.90
67163;DHT22;54092;53.088;8.850;2024-03-23T16:47:12;3.30;99.90